createdAt,value
2017-07-11T00:00:55.579Z,18.10
2017-07-11T00:03:23.156Z,18.00
2017-07-11T00:05:50.694Z,18.00
2017-07-11T00:08:18.230Z,17.90
2017-07-11T00:10:45.832Z,17.90
2017-07-11T00:13:13.374Z,17.80
2017-07-11T00:15:40.958Z,17.80
2017-07-11T00:18:09.333Z,17.80
2017-07-11T00:20:36.929Z,17.70
2017-07-11T00:23:04.549Z,17.70
2017-07-11T00:25:32.187Z,17.70
2017-07-11T00:31:13.466Z,17.60
2017-07-11T00:33:41.140Z,17.50
2017-07-11T00:36:08.675Z,17.40
2017-07-11T00:41:41.841Z,17.50
2017-07-11T00:44:09.664Z,17.40
2017-07-11T00:46:37.357Z,17.40
2017-07-11T00:49:04.964Z,17.30
2017-07-11T00:51:32.680Z,17.20
2017-07-11T00:54:00.293Z,17.20
2017-07-11T00:56:27.869Z,17.20
2017-07-11T00:58:55.424Z,17.10
2017-07-11T01:01:23.006Z,17.20
2017-07-11T01:03:50.546Z,17.20
2017-07-11T01:06:18.127Z,17.10
2017-07-11T01:08:45.665Z,17.00
2017-07-11T01:11:13.226Z,16.90
2017-07-11T01:13:40.794Z,16.90
2017-07-11T01:16:08.338Z,16.90
2017-07-11T01:18:35.913Z,17.00
2017-07-11T01:21:03.479Z,17.00
2017-07-11T01:23:31.058Z,16.90
2017-07-11T01:25:58.691Z,16.90
2017-07-11T01:28:26.260Z,16.80
2017-07-11T01:30:53.831Z,16.80
2017-07-11T01:33:21.370Z,16.90
2017-07-11T01:35:48.935Z,16.70
2017-07-11T01:38:16.470Z,16.70
2017-07-11T01:40:44.042Z,16.70
2017-07-11T01:43:11.584Z,16.80
2017-07-11T01:45:39.178Z,16.70
2017-07-11T01:48:06.720Z,16.80
2017-07-11T01:50:34.266Z,16.70
2017-07-11T01:53:01.838Z,16.80
2017-07-11T01:55:29.385Z,16.80
2017-07-11T01:57:56.934Z,16.80
2017-07-11T02:00:24.547Z,16.80
2017-07-11T02:02:52.108Z,16.80
2017-07-11T02:05:19.671Z,16.70
2017-07-11T02:07:47.243Z,16.70
2017-07-11T02:10:14.791Z,16.70
2017-07-11T02:12:42.359Z,16.70
2017-07-11T02:15:09.902Z,16.70
2017-07-11T02:17:37.495Z,16.70
2017-07-11T02:20:05.035Z,16.60
2017-07-11T02:22:32.582Z,16.60
2017-07-11T02:25:00.158Z,16.60
2017-07-11T02:27:27.712Z,16.50
2017-07-11T02:29:55.306Z,16.50
2017-07-11T02:32:22.846Z,16.50
2017-07-11T02:34:50.429Z,16.40
2017-07-11T02:37:17.978Z,16.40
2017-07-11T02:39:45.505Z,16.40
2017-07-11T02:42:13.082Z,16.40
2017-07-11T02:44:40.616Z,16.40
2017-07-11T02:47:08.920Z,16.30
2017-07-11T02:49:36.468Z,16.40
2017-07-11T02:52:04.059Z,16.30
2017-07-11T02:54:31.611Z,16.20
2017-07-11T02:56:59.191Z,16.20
2017-07-11T02:59:26.734Z,16.20
2017-07-11T03:01:56.308Z,16.20
2017-07-11T03:04:23.854Z,16.10
2017-07-11T03:06:51.419Z,16.10
2017-07-11T03:09:18.957Z,16.20
2017-07-11T03:11:46.535Z,16.20
2017-07-11T03:14:14.081Z,16.20
2017-07-11T03:16:41.637Z,16.10
2017-07-11T03:19:09.271Z,16.10
2017-07-11T03:21:36.813Z,16.10
2017-07-11T03:24:04.417Z,16.00
2017-07-11T03:26:31.964Z,16.10
2017-07-11T03:28:59.555Z,16.10
2017-07-11T03:31:27.091Z,16.00
2017-07-11T03:33:54.675Z,16.00
2017-07-11T03:36:22.218Z,16.10
2017-07-11T03:38:49.791Z,16.00
2017-07-11T03:41:17.333Z,16.00
2017-07-11T03:43:44.922Z,16.00
2017-07-11T03:46:12.452Z,16.10
2017-07-11T03:48:39.993Z,16.10
2017-07-11T03:51:07.574Z,16.00
2017-07-11T03:53:35.114Z,16.00
2017-07-11T03:56:02.662Z,16.00
2017-07-11T03:58:30.242Z,16.00
2017-07-11T04:00:57.779Z,16.10
2017-07-11T04:03:25.418Z,16.10
2017-07-11T04:05:52.975Z,16.00
2017-07-11T04:08:20.549Z,16.00
2017-07-11T04:10:48.134Z,16.00
2017-07-11T04:13:15.677Z,16.10
2017-07-11T04:15:43.226Z,16.00
2017-07-11T04:18:10.798Z,16.00
2017-07-11T04:20:38.358Z,16.10
2017-07-11T04:23:05.932Z,16.10
2017-07-11T04:25:33.470Z,16.10
2017-07-11T04:28:01.051Z,16.10
2017-07-11T04:30:28.584Z,16.10
2017-07-11T04:32:56.850Z,16.20
2017-07-11T04:35:24.395Z,16.20
2017-07-11T04:37:51.970Z,16.10
2017-07-11T04:40:19.541Z,16.10
2017-07-11T04:42:47.086Z,16.20
2017-07-11T04:45:14.702Z,16.20
2017-07-11T04:47:42.241Z,16.20
2017-07-11T04:50:09.884Z,16.10
2017-07-11T04:52:37.606Z,16.10
2017-07-11T04:55:05.158Z,16.10
2017-07-11T04:57:33.498Z,16.20
2017-07-11T05:00:01.909Z,16.20
2017-07-11T05:02:33.404Z,16.30
2017-07-11T05:07:51.340Z,16.40
2017-07-11T05:12:56.297Z,16.30
2017-07-11T05:15:23.891Z,16.50
2017-07-11T05:17:51.437Z,16.50
2017-07-11T05:20:19.030Z,16.60
2017-07-11T05:22:46.600Z,16.70
2017-07-11T05:25:14.150Z,16.80
2017-07-11T05:27:41.974Z,16.80
2017-07-11T05:30:09.525Z,16.90
2017-07-11T05:32:37.085Z,16.90
2017-07-11T05:35:04.677Z,17.00
2017-07-11T05:37:32.225Z,17.00
2017-07-11T05:39:59.787Z,17.00
2017-07-11T05:42:27.381Z,17.20
2017-07-11T05:44:54.930Z,17.30
2017-07-11T05:47:22.523Z,17.40
2017-07-11T05:49:50.070Z,17.40
2017-07-11T05:52:17.683Z,17.50
2017-07-11T05:54:45.272Z,17.50
2017-07-11T05:57:12.865Z,17.50
2017-07-11T05:59:40.463Z,17.60
2017-07-11T06:02:08.037Z,17.70
2017-07-11T06:04:35.595Z,17.80
2017-07-11T06:07:03.175Z,17.80
2017-07-11T06:09:31.477Z,17.90
2017-07-11T06:11:59.249Z,18.00
2017-07-11T06:14:26.799Z,18.10
2017-07-11T06:16:54.351Z,18.10
2017-07-11T06:19:21.939Z,18.70
2017-07-11T06:21:49.491Z,19.20
2017-07-11T06:24:17.074Z,19.50
2017-07-11T06:26:45.452Z,19.50
2017-07-11T06:29:13.047Z,19.90
2017-07-11T06:31:40.624Z,20.40
2017-07-11T06:34:08.166Z,20.90
2017-07-11T06:36:35.764Z,21.00
2017-07-11T06:39:03.328Z,20.50
2017-07-11T06:41:30.890Z,20.50
2017-07-11T06:43:58.483Z,21.10
2017-07-11T06:46:26.107Z,21.60
2017-07-11T06:48:53.653Z,21.50
2017-07-11T06:51:21.217Z,21.40
2017-07-11T06:53:48.809Z,21.20
2017-07-11T06:56:16.365Z,21.20
2017-07-11T06:58:43.948Z,21.60
2017-07-11T07:01:11.506Z,21.50
2017-07-11T07:03:39.090Z,21.80
2017-07-11T07:06:06.652Z,21.80
2017-07-11T07:08:34.244Z,21.80
2017-07-11T07:11:01.807Z,21.30
2017-07-11T07:13:29.369Z,20.80
2017-07-11T07:15:56.981Z,20.30
2017-07-11T07:18:24.525Z,20.30
2017-07-11T07:20:52.088Z,20.50
2017-07-11T07:23:19.681Z,20.80
2017-07-11T07:25:47.230Z,20.70
2017-07-11T07:28:14.791Z,21.00
2017-07-11T07:30:42.399Z,21.00
2017-07-11T07:33:09.947Z,21.10
2017-07-11T07:35:37.494Z,21.10
2017-07-11T07:38:05.086Z,21.20
2017-07-11T07:40:32.694Z,21.30
2017-07-11T07:43:00.257Z,21.50
2017-07-11T07:45:27.804Z,21.50
2017-07-11T07:47:55.448Z,21.50
2017-07-11T07:50:23.006Z,21.50
2017-07-11T07:52:50.557Z,21.40
2017-07-11T07:55:18.175Z,21.40
2017-07-11T07:57:45.723Z,21.40
2017-07-11T08:00:13.271Z,21.30
2017-07-11T08:02:40.864Z,21.40
2017-07-11T08:05:08.443Z,21.60
2017-07-11T08:07:36.005Z,21.60
2017-07-11T08:10:03.596Z,21.80
2017-07-11T08:12:31.195Z,21.90
2017-07-11T08:14:58.752Z,21.60
2017-07-11T08:17:26.344Z,21.60
2017-07-11T08:19:53.923Z,21.80
2017-07-11T08:22:21.483Z,22.00
2017-07-11T08:24:49.125Z,22.10
2017-07-11T08:27:16.649Z,22.00
2017-07-11T08:29:44.251Z,22.20
2017-07-11T08:32:11.812Z,21.90
2017-07-11T08:34:39.373Z,21.70
2017-07-11T08:37:06.982Z,21.90
2017-07-11T08:39:34.545Z,22.30
2017-07-11T08:42:02.092Z,22.30
2017-07-11T08:44:29.684Z,22.40
2017-07-11T08:46:57.233Z,22.30
2017-07-11T08:49:24.825Z,22.20
2017-07-11T08:51:52.389Z,21.90
2017-07-11T08:54:19.950Z,21.80
2017-07-11T08:56:47.573Z,21.40
2017-07-11T08:59:15.143Z,21.70
2017-07-11T09:01:42.698Z,21.80
2017-07-11T09:04:10.306Z,21.90
2017-07-11T09:06:37.874Z,21.30
2017-07-11T09:09:05.434Z,21.40
2017-07-11T09:11:33.023Z,21.50
2017-07-11T09:14:00.571Z,21.40
2017-07-11T09:16:28.179Z,21.30
2017-07-11T09:18:55.727Z,21.20
2017-07-11T09:21:23.290Z,21.30
2017-07-11T09:23:50.903Z,21.20
2017-07-11T09:26:18.474Z,21.20
2017-07-11T09:28:46.023Z,21.10
2017-07-11T09:31:13.636Z,21.00
2017-07-11T09:33:41.195Z,21.00
2017-07-11T09:36:08.758Z,21.10
2017-07-11T09:38:36.364Z,21.40
2017-07-11T09:41:03.926Z,21.30
2017-07-11T09:43:31.479Z,21.40
2017-07-11T09:45:59.082Z,21.70
2017-07-11T09:48:26.900Z,21.90
2017-07-11T09:50:54.462Z,22.00
2017-07-11T09:53:22.062Z,22.10
2017-07-11T09:55:49.618Z,21.80
2017-07-11T09:58:17.240Z,22.00
2017-07-11T10:00:44.788Z,22.20
2017-07-11T10:03:12.335Z,22.40
2017-07-11T10:05:39.923Z,22.30
2017-07-11T10:08:07.521Z,22.40
2017-07-11T10:10:35.113Z,22.50
2017-07-11T10:13:02.677Z,22.40
2017-07-11T10:15:30.268Z,22.40
2017-07-11T10:17:57.816Z,22.60
2017-07-11T10:20:25.365Z,22.80
2017-07-11T10:22:52.956Z,22.80
2017-07-11T10:25:20.505Z,22.90
2017-07-11T10:27:48.113Z,23.00
2017-07-11T10:30:15.675Z,23.10
2017-07-11T10:32:43.222Z,23.00
2017-07-11T10:35:10.815Z,23.00
2017-07-11T10:37:39.128Z,23.10
2017-07-11T10:40:06.720Z,23.20
2017-07-11T10:42:34.268Z,23.20
2017-07-11T10:45:01.829Z,23.30
2017-07-11T10:47:29.632Z,23.40
2017-07-11T10:49:57.226Z,23.20
2017-07-11T10:52:24.788Z,23.00
2017-07-11T10:54:52.349Z,23.20
2017-07-11T10:57:19.934Z,23.40
2017-07-11T10:59:47.494Z,23.40
2017-07-11T11:02:15.864Z,23.40
2017-07-11T11:04:44.297Z,23.40
2017-07-11T11:07:12.655Z,23.40
2017-07-11T11:09:40.247Z,23.60
2017-07-11T11:12:07.811Z,23.50
2017-07-11T11:14:35.628Z,23.20
2017-07-11T11:17:05.652Z,23.30
2017-07-11T11:19:33.243Z,23.60
2017-07-11T11:22:00.837Z,23.50
2017-07-11T11:24:28.400Z,23.70
2017-07-11T11:26:55.991Z,23.90
2017-07-11T11:29:23.585Z,23.80
2017-07-11T11:31:51.147Z,23.90
2017-07-11T11:34:18.754Z,24.00
2017-07-11T11:36:46.301Z,24.10
2017-07-11T11:39:13.855Z,24.10
2017-07-11T11:41:41.458Z,23.80
2017-07-11T11:44:09.022Z,23.90
2017-07-11T11:46:36.614Z,24.00
2017-07-11T11:49:04.176Z,24.00
2017-07-11T11:51:31.783Z,24.10
2017-07-11T11:53:59.346Z,24.20
2017-07-11T11:56:26.909Z,24.40
2017-07-11T11:58:54.517Z,24.50
2017-07-11T12:01:22.080Z,24.70
2017-07-11T12:03:49.642Z,24.70
2017-07-11T12:06:17.235Z,24.70
2017-07-11T12:08:44.797Z,24.50
2017-07-11T12:11:12.410Z,24.30
2017-07-11T12:13:39.962Z,24.50
2017-07-11T12:16:07.514Z,24.40
2017-07-11T12:18:35.137Z,24.30
2017-07-11T12:21:02.686Z,24.30
2017-07-11T12:23:30.248Z,24.10
2017-07-11T12:25:57.856Z,24.30
2017-07-11T12:28:25.419Z,24.50
2017-07-11T12:30:52.967Z,24.50
2017-07-11T12:33:20.576Z,24.50
2017-07-11T12:35:48.131Z,24.50
2017-07-11T12:38:15.680Z,24.20
2017-07-11T12:40:43.296Z,23.90
2017-07-11T12:43:10.856Z,23.90
2017-07-11T12:45:38.432Z,24.10
2017-07-11T12:48:06.040Z,24.30
2017-07-11T12:50:33.582Z,24.60
2017-07-11T12:53:01.130Z,24.40
2017-07-11T12:55:28.957Z,24.70
2017-07-11T12:57:56.516Z,24.60
2017-07-11T13:00:24.079Z,24.60
2017-07-11T13:02:51.672Z,24.70
2017-07-11T13:05:19.280Z,24.90
2017-07-11T13:07:46.842Z,24.50
2017-07-11T13:10:14.415Z,24.70
2017-07-11T13:12:42.133Z,24.80
2017-07-11T13:15:09.726Z,25.00
2017-07-11T13:17:37.272Z,25.20
2017-07-11T13:20:04.880Z,25.40
2017-07-11T13:22:32.443Z,25.30
2017-07-11T13:25:00.013Z,25.10
2017-07-11T13:27:27.628Z,25.10
2017-07-11T13:29:55.191Z,25.10
2017-07-11T13:32:22.768Z,24.60
2017-07-11T13:34:50.602Z,24.50
2017-07-11T13:37:18.163Z,24.10
2017-07-11T13:39:45.727Z,24.00
2017-07-11T13:42:13.334Z,24.00
2017-07-11T13:44:40.897Z,24.10
2017-07-11T13:47:09.392Z,24.20
2017-07-11T13:49:36.983Z,23.70
2017-07-11T13:52:04.545Z,23.90
2017-07-11T13:54:32.152Z,24.00
2017-07-11T13:56:59.701Z,24.10
2017-07-11T13:59:27.262Z,24.10
2017-07-11T14:01:54.856Z,24.10
2017-07-11T14:04:22.478Z,24.00
2017-07-11T14:06:50.041Z,24.10
2017-07-11T14:09:17.604Z,24.00
2017-07-11T14:11:45.212Z,24.10
2017-07-11T14:14:12.775Z,24.00
2017-07-11T14:16:40.321Z,24.20
2017-07-11T14:19:07.919Z,24.30
2017-07-11T14:21:35.523Z,24.40
2017-07-11T14:24:03.089Z,24.50
2017-07-11T14:26:30.650Z,24.50
2017-07-11T14:28:58.240Z,24.60
2017-07-11T14:31:25.789Z,24.60
2017-07-11T14:33:53.380Z,24.50
2017-07-11T14:36:20.944Z,24.40
2017-07-11T14:38:48.505Z,24.60
2017-07-11T14:41:17.059Z,24.70
2017-07-11T14:43:44.621Z,24.70
2017-07-11T14:46:12.234Z,24.60
2017-07-11T14:48:40.647Z,24.80
2017-07-11T14:51:08.195Z,24.70
2017-07-11T14:53:35.907Z,24.80
2017-07-11T14:56:03.470Z,24.70
2017-07-11T14:58:31.036Z,24.70
2017-07-11T15:00:58.646Z,24.90
2017-07-11T15:03:26.248Z,25.00
2017-07-11T15:05:57.358Z,25.00
2017-07-11T15:08:25.142Z,24.80
2017-07-11T15:10:53.077Z,24.90
2017-07-11T15:13:20.985Z,25.10
2017-07-11T15:15:48.578Z,24.90
2017-07-11T15:18:16.178Z,24.80
2017-07-11T15:20:43.749Z,24.60
2017-07-11T15:23:11.355Z,24.50
2017-07-11T15:25:38.924Z,24.50
2017-07-11T15:28:06.496Z,24.40
2017-07-11T15:30:34.104Z,24.30
2017-07-11T15:33:01.667Z,24.40
2017-07-11T15:35:29.583Z,24.40
2017-07-11T15:37:57.168Z,24.30
2017-07-11T15:40:25.770Z,24.30
2017-07-11T15:42:54.138Z,24.30
2017-07-11T15:45:22.435Z,24.10
2017-07-11T15:47:50.045Z,24.10
2017-07-11T15:50:17.622Z,23.90
2017-07-11T15:52:45.177Z,23.90
2017-07-11T15:55:13.693Z,23.80
2017-07-11T15:57:42.255Z,23.70
2017-07-11T16:00:09.808Z,23.60
2017-07-11T16:02:37.372Z,23.50
2017-07-11T16:05:05.008Z,23.40
2017-07-11T16:07:32.570Z,23.30
2017-07-11T16:10:00.118Z,23.20
2017-07-11T16:12:27.761Z,23.20
2017-07-11T16:14:55.320Z,23.10
2017-07-11T16:17:23.166Z,22.90
2017-07-11T16:19:50.805Z,22.90
2017-07-11T16:22:20.895Z,22.90
2017-07-11T16:24:49.057Z,23.00
2017-07-11T16:27:16.644Z,23.10
2017-07-11T16:29:45.151Z,23.20
2017-07-11T16:32:13.031Z,23.30
2017-07-11T16:34:46.113Z,23.10
2017-07-11T16:37:15.581Z,23.20
2017-07-11T16:39:45.379Z,23.10
2017-07-11T16:42:12.948Z,23.10
2017-07-11T16:44:40.542Z,23.00
2017-07-11T16:47:08.805Z,23.10
2017-07-11T16:49:37.655Z,23.10
2017-07-11T16:54:51.121Z,23.10
2017-07-11T16:57:22.893Z,22.80
2017-07-11T16:59:51.645Z,22.10
2017-07-11T17:02:29.839Z,21.30
2017-07-11T17:41:40.222Z,19.50
2017-07-11T17:44:08.782Z,18.70
2017-07-11T17:46:36.356Z,18.80
2017-07-11T17:49:04.654Z,18.80
2017-07-11T17:51:32.225Z,18.80
2017-07-11T17:54:11.479Z,18.70
2017-07-11T17:59:53.994Z,18.80
2017-07-11T18:10:02.894Z,18.90
2017-07-11T18:12:31.728Z,18.60
2017-07-11T18:15:00.062Z,18.70
2017-07-11T18:17:27.664Z,18.60
2017-07-11T18:19:57.252Z,18.70
2017-07-11T18:22:25.426Z,18.70
2017-07-11T18:24:53.368Z,18.60
2017-07-11T18:27:22.650Z,18.50
2017-07-11T18:29:51.839Z,18.40
2017-07-11T18:32:19.783Z,18.50
2017-07-11T18:34:47.388Z,18.60
2017-07-11T18:37:15.751Z,18.60
2017-07-11T18:39:44.698Z,18.50
2017-07-11T18:42:12.268Z,18.40
2017-07-11T18:44:39.890Z,18.30
2017-07-11T18:47:07.435Z,18.40
2017-07-11T18:49:36.383Z,18.50
2017-07-11T18:52:03.924Z,18.60
2017-07-11T18:54:31.467Z,18.50
2017-07-11T18:56:59.035Z,18.60
2017-07-11T18:59:26.576Z,18.60
2017-07-11T19:01:54.148Z,18.50
2017-07-11T19:04:22.286Z,18.50
2017-07-11T19:06:51.613Z,18.50
2017-07-11T19:09:19.195Z,18.50
2017-07-11T19:11:46.739Z,18.40
2017-07-11T19:14:14.310Z,18.50
2017-07-11T19:16:41.899Z,18.50
2017-07-11T19:19:09.519Z,18.50
2017-07-11T19:21:39.777Z,18.60
2017-07-11T19:24:09.068Z,18.60
2017-07-11T19:26:36.818Z,18.50
2017-07-11T19:29:06.228Z,18.50
2017-07-11T19:31:33.803Z,18.40
2017-07-11T19:34:01.339Z,18.40
2017-07-11T19:36:29.784Z,18.40
2017-07-11T19:38:57.339Z,18.40
2017-07-11T19:41:24.919Z,18.50
2017-07-11T19:43:52.467Z,18.30
2017-07-11T19:46:20.166Z,18.40
2017-07-11T19:48:49.611Z,18.40
2017-07-11T19:51:18.147Z,18.50
2017-07-11T19:53:45.802Z,18.50
2017-07-11T19:56:14.423Z,18.60
2017-07-11T19:58:42.776Z,18.60
2017-07-11T20:01:10.335Z,18.60
2017-07-11T20:03:38.143Z,18.60
2017-07-11T20:06:05.785Z,18.60
2017-07-11T20:08:34.160Z,18.60
2017-07-11T20:11:01.809Z,18.60
2017-07-11T20:13:29.478Z,18.50
2017-07-11T20:15:58.775Z,18.50
2017-07-11T20:18:26.404Z,18.50
2017-07-11T20:20:54.013Z,18.50
2017-07-11T20:23:22.109Z,18.60
2017-07-11T20:25:49.671Z,18.50
2017-07-11T20:28:17.259Z,18.50
2017-07-11T20:30:44.849Z,18.60
2017-07-11T20:33:13.704Z,18.50
2017-07-11T20:35:41.253Z,18.50
2017-07-11T20:38:11.023Z,18.40
2017-07-11T20:40:38.622Z,18.30
2017-07-11T20:43:08.974Z,18.30
2017-07-11T20:45:36.549Z,18.30
2017-07-11T20:48:04.127Z,18.20
2017-07-11T20:50:31.673Z,18.20
2017-07-11T20:52:59.988Z,18.20
2017-07-11T20:55:27.538Z,18.30
2017-07-11T20:57:55.218Z,18.30
2017-07-11T21:00:22.794Z,18.30
2017-07-11T21:02:55.854Z,18.20
2017-07-11T21:05:23.529Z,18.20
2017-07-11T21:07:51.073Z,18.10
2017-07-11T21:10:18.714Z,18.20
2017-07-11T21:12:46.617Z,18.20
2017-07-11T21:15:16.060Z,18.20
2017-07-11T21:17:44.409Z,18.40
2017-07-11T21:20:11.968Z,18.30
2017-07-11T21:22:39.542Z,18.30
2017-07-11T21:25:07.080Z,18.30
2017-07-11T21:27:34.772Z,18.20
2017-07-11T21:30:02.351Z,18.30
2017-07-11T21:32:30.654Z,18.20
2017-07-11T21:34:58.242Z,18.20
2017-07-11T21:37:26.961Z,18.20
2017-07-11T21:39:55.349Z,18.20
2017-07-11T21:42:22.928Z,18.20
2017-07-11T21:44:50.567Z,18.20
2017-07-11T21:47:18.224Z,18.30
2017-07-11T21:49:46.631Z,18.20
2017-07-11T21:52:15.210Z,18.20
2017-07-11T21:54:43.751Z,18.20
2017-07-11T21:57:11.398Z,18.30
2017-07-11T21:59:39.080Z,18.20
2017-07-11T22:02:07.552Z,18.20
2017-07-11T22:04:36.358Z,18.20
2017-07-11T22:07:03.983Z,18.20
2017-07-11T22:09:31.557Z,18.20
2017-07-11T22:11:59.182Z,18.20
2017-07-11T22:14:26.727Z,18.20
2017-07-11T22:16:54.315Z,18.30
2017-07-11T22:19:21.899Z,18.40
2017-07-11T22:21:49.435Z,18.40
2017-07-11T22:24:16.991Z,18.30
2017-07-11T22:26:44.578Z,18.30
2017-07-11T22:29:12.890Z,18.20
2017-07-11T22:31:40.489Z,18.20
2017-07-11T22:34:08.037Z,18.30
2017-07-11T22:36:35.581Z,18.40
2017-07-11T22:39:03.202Z,18.30
2017-07-11T22:41:31.546Z,18.40
2017-07-11T22:43:59.707Z,18.30
2017-07-11T22:46:27.252Z,18.30
2017-07-11T22:48:54.837Z,18.40
2017-07-11T22:51:22.410Z,18.40
2017-07-11T22:53:49.952Z,18.40
2017-07-11T22:56:17.534Z,18.50
2017-07-11T22:58:45.069Z,18.50
2017-07-11T23:01:12.611Z,18.50
2017-07-11T23:03:40.206Z,18.50
2017-07-11T23:06:08.217Z,18.50
2017-07-11T23:08:42.785Z,18.50
2017-07-11T23:11:10.342Z,18.60
2017-07-11T23:13:37.924Z,18.60
2017-07-11T23:16:07.639Z,18.30
2017-07-11T23:18:35.944Z,18.20
2017-07-11T23:21:03.539Z,18.10
2017-07-11T23:23:31.090Z,18.00
2017-07-11T23:25:58.631Z,18.00
2017-07-11T23:28:26.219Z,18.10
2017-07-11T23:30:53.764Z,18.10
2017-07-11T23:33:21.371Z,18.00
2017-07-11T23:35:49.686Z,17.90
2017-07-11T23:38:17.225Z,17.90
2017-07-11T23:40:44.811Z,17.90
2017-07-11T23:43:12.359Z,17.90
2017-07-11T23:45:39.906Z,18.00
2017-07-11T23:48:07.483Z,18.00
2017-07-11T23:50:35.042Z,18.00
2017-07-11T23:53:02.630Z,17.90
2017-07-11T23:55:30.174Z,17.90
2017-07-11T23:57:57.716Z,18.00
